createdAt,value
2023-03-22T00:02:16.573Z,8.22
2023-03-22T00:04:44.675Z,8.26
2023-03-22T00:07:12.846Z,8.29
2023-03-22T00:09:41.063Z,8.29
2023-03-22T00:12:09.257Z,8.31
2023-03-22T00:14:37.446Z,8.32
2023-03-22T00:17:05.953Z,8.32
2023-03-22T00:19:34.236Z,8.32
2023-03-22T00:22:03.696Z,8.33
2023-03-22T00:24:32.256Z,8.35
2023-03-22T00:27:01.114Z,8.38
2023-03-22T00:29:29.417Z,8.40
2023-03-22T00:31:58.500Z,8.42
2023-03-22T00:34:32.478Z,8.44
2023-03-22T00:37:01.500Z,8.45
2023-03-22T00:39:30.404Z,8.46
2023-03-22T00:41:58.475Z,8.49
2023-03-22T00:44:27.082Z,8.51
2023-03-22T00:46:55.551Z,8.54
2023-03-22T00:49:23.649Z,8.56
2023-03-22T00:51:51.797Z,8.57
2023-03-22T00:54:19.956Z,8.59
2023-03-22T00:56:49.998Z,8.60
2023-03-22T00:59:18.566Z,8.61
2023-03-22T01:01:47.217Z,8.63
2023-03-22T01:04:18.334Z,8.64
2023-03-22T01:06:47.356Z,8.65
2023-03-22T01:09:15.735Z,8.66
2023-03-22T01:11:45.806Z,8.67
2023-03-22T01:14:16.919Z,8.65
2023-03-22T01:16:45.510Z,8.65
2023-03-22T01:19:13.969Z,8.66
2023-03-22T01:21:42.232Z,8.65
2023-03-22T01:24:10.708Z,8.64
2023-03-22T01:26:39.107Z,8.65
2023-03-22T01:29:07.172Z,8.65
2023-03-22T01:31:35.370Z,8.64
2023-03-22T01:34:04.048Z,8.64
2023-03-22T01:36:33.012Z,8.63
2023-03-22T01:39:01.116Z,8.62
2023-03-22T01:41:34.911Z,8.59
2023-03-22T01:44:13.403Z,8.57
2023-03-22T01:46:43.362Z,8.55
2023-03-22T01:49:24.452Z,8.53
2023-03-22T01:51:55.363Z,8.51
2023-03-22T01:54:50.596Z,8.49
2023-03-22T01:57:29.435Z,8.48
2023-03-22T01:59:58.393Z,8.47
2023-03-22T02:02:44.050Z,8.48
2023-03-22T02:05:22.526Z,8.51
2023-03-22T02:07:53.149Z,8.53
2023-03-22T02:10:26.422Z,8.55
2023-03-22T02:13:24.487Z,8.58
2023-03-22T02:16:16.311Z,8.62
2023-03-22T02:19:19.600Z,8.64
2023-03-22T02:22:16.610Z,8.67
2023-03-22T02:25:09.822Z,8.69
2023-03-22T02:28:15.157Z,8.72
2023-03-22T02:31:00.205Z,8.75
2023-03-22T02:33:57.479Z,8.77
2023-03-22T02:36:59.710Z,8.79
2023-03-22T02:39:31.807Z,8.81
2023-03-22T02:42:08.991Z,8.83
2023-03-22T02:44:46.909Z,8.85
2023-03-22T02:47:39.900Z,8.87
2023-03-22T02:50:14.405Z,8.89
2023-03-22T02:52:54.085Z,8.90
2023-03-22T02:55:59.465Z,8.91
2023-03-22T02:58:33.722Z,8.92
2023-03-22T03:01:07.383Z,8.93
2023-03-22T03:03:38.067Z,8.94
2023-03-22T03:06:13.658Z,8.95
2023-03-22T03:08:43.597Z,8.96
2023-03-22T03:11:12.556Z,8.97
2023-03-22T03:13:40.703Z,8.97
2023-03-22T03:16:17.594Z,8.97
2023-03-22T03:19:07.961Z,8.97
2023-03-22T03:21:58.868Z,8.97
2023-03-22T03:24:33.546Z,8.97
2023-03-22T03:27:14.673Z,8.97
2023-03-22T03:29:51.488Z,8.96
2023-03-22T03:32:26.902Z,8.95
2023-03-22T03:35:18.097Z,8.94
2023-03-22T03:38:01.690Z,8.93
2023-03-22T03:40:37.831Z,8.91
2023-03-22T03:43:07.194Z,8.90
2023-03-22T03:45:37.532Z,8.88
2023-03-22T03:48:12.025Z,8.86
2023-03-22T03:50:40.556Z,8.83
2023-03-22T03:53:10.081Z,8.82
2023-03-22T03:55:38.194Z,8.80
2023-03-22T03:58:09.123Z,8.78
2023-03-22T04:00:38.727Z,8.75
2023-03-22T04:03:30.385Z,8.74
2023-03-22T04:06:04.740Z,8.73
2023-03-22T04:08:36.269Z,8.71
2023-03-22T04:11:05.206Z,8.69
2023-03-22T04:13:33.877Z,8.68
2023-03-22T04:16:04.288Z,8.67
2023-03-22T04:18:35.316Z,8.66
2023-03-22T04:21:05.805Z,8.66
2023-03-22T04:23:41.146Z,8.65
2023-03-22T04:26:09.454Z,8.64
2023-03-22T04:28:46.003Z,8.64
2023-03-22T04:31:14.128Z,8.63
2023-03-22T04:33:54.947Z,8.61
2023-03-22T04:36:45.268Z,8.60
2023-03-22T04:39:22.081Z,8.58
2023-03-22T04:41:58.697Z,8.58
2023-03-22T04:44:27.780Z,8.56
2023-03-22T04:46:56.003Z,8.56
2023-03-22T04:49:24.199Z,8.56
2023-03-22T04:51:53.090Z,8.56
2023-03-22T04:54:27.667Z,8.55
2023-03-22T04:56:56.593Z,8.55
2023-03-22T04:59:25.244Z,8.54
2023-03-22T05:01:53.614Z,8.54
2023-03-22T05:04:27.334Z,8.54
2023-03-22T05:07:01.779Z,8.52
2023-03-22T05:09:38.172Z,8.52
2023-03-22T05:12:06.983Z,8.52
2023-03-22T05:14:42.780Z,8.51
2023-03-22T05:17:12.020Z,8.50
2023-03-22T05:19:40.802Z,8.49
2023-03-22T05:22:08.873Z,8.47
2023-03-22T05:24:43.052Z,8.47
2023-03-22T05:27:15.595Z,8.47
2023-03-22T05:29:46.904Z,8.48
2023-03-22T05:32:25.712Z,8.50
2023-03-22T05:34:56.334Z,8.52
2023-03-22T05:37:32.825Z,8.54
2023-03-22T05:40:01.880Z,8.55
2023-03-22T05:42:37.586Z,8.56
2023-03-22T05:45:14.696Z,8.59
2023-03-22T05:47:43.921Z,8.61
2023-03-22T05:50:18.176Z,8.62
2023-03-22T05:52:46.852Z,8.64
2023-03-22T05:55:23.337Z,8.66
2023-03-22T05:57:56.824Z,8.66
2023-03-22T06:00:25.864Z,8.66
2023-03-22T06:03:26.510Z,8.67
2023-03-22T06:06:10.834Z,8.66
2023-03-22T06:08:47.616Z,8.68
2023-03-22T06:11:15.707Z,8.69
2023-03-22T06:13:43.801Z,8.72
2023-03-22T06:16:12.272Z,8.73
2023-03-22T06:18:41.037Z,8.76
2023-03-22T06:21:12.102Z,8.78
2023-03-22T06:23:40.317Z,8.79
2023-03-22T06:26:11.543Z,8.80
2023-03-22T06:28:41.395Z,8.83
2023-03-22T06:31:10.856Z,8.85
2023-03-22T06:33:45.715Z,8.86
2023-03-22T06:36:49.215Z,8.88
2023-03-22T06:39:25.550Z,8.89
2023-03-22T06:41:54.428Z,8.89
2023-03-22T06:44:22.844Z,8.90
2023-03-22T06:46:54.177Z,8.91
2023-03-22T06:49:42.592Z,8.91
2023-03-22T06:52:15.483Z,8.92
2023-03-22T06:54:43.956Z,8.93
2023-03-22T06:57:12.309Z,8.94
2023-03-22T06:59:40.438Z,8.96
2023-03-22T07:02:11.974Z,8.97
2023-03-22T07:04:42.811Z,8.99
2023-03-22T07:07:11.645Z,9.02
2023-03-22T07:09:40.393Z,9.07
2023-03-22T07:12:09.970Z,9.11
2023-03-22T07:14:38.669Z,9.14
2023-03-22T07:17:25.385Z,9.19
2023-03-22T07:19:54.030Z,9.22
2023-03-22T07:22:24.932Z,9.24
2023-03-22T07:24:57.742Z,9.28
2023-03-22T07:27:27.574Z,9.30
2023-03-22T07:29:56.328Z,9.32
2023-03-22T07:32:24.570Z,9.35
2023-03-22T07:35:07.860Z,9.39
2023-03-22T07:37:36.296Z,9.41
2023-03-22T07:40:07.039Z,9.43
2023-03-22T07:42:35.600Z,9.45
2023-03-22T07:45:22.828Z,9.46
2023-03-22T07:48:12.013Z,9.48
2023-03-22T07:50:56.544Z,9.50
2023-03-22T07:53:25.907Z,9.52
2023-03-22T07:55:54.296Z,9.54
2023-03-22T07:58:22.578Z,9.55
2023-03-22T08:00:50.799Z,9.57
2023-03-22T08:03:37.867Z,9.59
2023-03-22T08:06:16.525Z,9.62
2023-03-22T08:08:44.688Z,9.66
2023-03-22T08:11:12.855Z,9.70
2023-03-22T08:13:41.213Z,9.74
2023-03-22T08:16:12.706Z,9.78
2023-03-22T08:18:43.027Z,9.84
2023-03-22T08:21:12.780Z,9.87
2023-03-22T08:23:42.518Z,9.88
2023-03-22T08:26:33.472Z,9.90
2023-03-22T08:29:09.704Z,9.93
2023-03-22T08:31:38.405Z,9.95
2023-03-22T08:34:06.601Z,9.99
2023-03-22T08:36:34.850Z,10.02
2023-03-22T08:39:05.501Z,10.06
2023-03-22T08:41:41.506Z,10.12
2023-03-22T08:44:10.239Z,10.15
2023-03-22T08:46:38.552Z,10.19
2023-03-22T08:49:07.400Z,10.22
2023-03-22T08:51:48.360Z,10.26
2023-03-22T08:54:19.704Z,10.29
2023-03-22T08:56:54.626Z,10.31
2023-03-22T08:59:52.360Z,10.34
2023-03-22T09:02:28.203Z,10.38
2023-03-22T09:04:56.890Z,10.40
2023-03-22T09:07:25.432Z,10.42
2023-03-22T09:10:20.013Z,10.44
2023-03-22T09:12:49.687Z,10.48
2023-03-22T09:15:18.050Z,10.52
2023-03-22T09:17:48.912Z,10.56
2023-03-22T09:20:17.366Z,10.62
2023-03-22T09:22:47.442Z,10.66
2023-03-22T09:25:20.802Z,10.70
2023-03-22T09:27:49.845Z,10.74
2023-03-22T09:30:18.004Z,10.78
2023-03-22T09:32:46.181Z,10.83
2023-03-22T09:35:16.515Z,10.89
2023-03-22T09:37:59.020Z,10.96
2023-03-22T09:40:31.478Z,11.02
2023-03-22T09:43:04.779Z,11.07
2023-03-22T09:45:43.041Z,11.12
2023-03-22T09:48:16.908Z,11.17
2023-03-22T09:50:48.717Z,11.22
2023-03-22T09:53:18.675Z,11.25
2023-03-22T09:55:55.873Z,11.27
2023-03-22T09:58:23.928Z,11.29
2023-03-22T10:00:56.941Z,11.29
2023-03-22T10:03:45.751Z,11.31
2023-03-22T10:06:23.027Z,11.34
2023-03-22T10:09:10.120Z,11.40
2023-03-22T10:11:51.656Z,11.46
2023-03-22T10:14:27.175Z,11.52
2023-03-22T10:16:58.262Z,11.59
2023-03-22T10:19:33.613Z,11.65
2023-03-22T10:22:04.117Z,11.73
2023-03-22T10:24:35.746Z,11.81
2023-03-22T10:27:04.848Z,11.92
2023-03-22T10:29:38.113Z,12.01
2023-03-22T10:32:16.885Z,12.08
2023-03-22T10:34:46.611Z,12.14
2023-03-22T10:37:22.442Z,12.19
2023-03-22T10:39:56.125Z,12.24
2023-03-22T10:42:27.915Z,12.28
2023-03-22T10:45:13.652Z,12.31
2023-03-22T10:47:48.807Z,12.37
2023-03-22T10:50:39.405Z,12.43
2023-03-22T10:53:43.293Z,12.48
2023-03-22T10:56:13.985Z,12.55
2023-03-22T10:58:42.335Z,12.61
2023-03-22T11:01:13.535Z,12.67
2023-03-22T11:03:44.322Z,12.72
2023-03-22T11:06:13.605Z,12.77
2023-03-22T11:08:47.895Z,12.81
2023-03-22T11:11:36.381Z,12.86
2023-03-22T11:14:16.065Z,12.92
2023-03-22T11:17:02.119Z,12.97
2023-03-22T11:19:37.376Z,13.02
2023-03-22T11:22:25.722Z,13.06
2023-03-22T11:24:56.446Z,13.12
2023-03-22T11:27:28.772Z,13.20
2023-03-22T11:30:08.040Z,13.24
2023-03-22T11:32:38.836Z,13.27
2023-03-22T11:35:15.873Z,13.32
2023-03-22T11:37:46.833Z,13.37
2023-03-22T11:40:18.415Z,13.41
2023-03-22T11:42:47.857Z,13.45
2023-03-22T11:45:31.197Z,13.50
2023-03-22T11:48:07.685Z,13.49
2023-03-22T11:50:38.502Z,13.48
2023-03-22T11:53:12.101Z,13.47
2023-03-22T11:55:42.664Z,13.48
2023-03-22T11:58:26.382Z,13.50
2023-03-22T12:01:01.527Z,13.54
2023-03-22T12:03:39.880Z,13.58
2023-03-22T12:06:22.176Z,13.64
2023-03-22T12:08:56.737Z,13.73
2023-03-22T12:11:34.724Z,13.82
2023-03-22T12:14:05.498Z,13.85
2023-03-22T12:16:45.803Z,13.91
2023-03-22T12:19:23.632Z,14.01
2023-03-22T12:21:52.896Z,14.11
2023-03-22T12:24:31.051Z,14.18
2023-03-22T12:27:10.301Z,14.22
2023-03-22T12:29:54.219Z,14.20
2023-03-22T12:32:28.600Z,14.16
2023-03-22T12:35:09.268Z,14.10
2023-03-22T12:37:48.337Z,14.01
2023-03-22T12:40:32.243Z,13.91
2023-03-22T12:43:25.954Z,13.83
2023-03-22T12:45:59.746Z,13.75
2023-03-22T12:48:28.016Z,13.71
2023-03-22T12:51:06.341Z,13.68
2023-03-22T12:53:43.010Z,13.65
2023-03-22T12:56:26.836Z,13.62
2023-03-22T12:59:01.530Z,13.58
2023-03-22T13:01:39.867Z,13.55
2023-03-22T13:04:31.773Z,13.49
2023-03-22T13:07:20.453Z,13.45
2023-03-22T13:09:50.754Z,13.40
2023-03-22T13:12:18.842Z,13.37
2023-03-22T13:14:53.200Z,13.32
2023-03-22T13:17:24.609Z,13.28
2023-03-22T13:20:21.863Z,13.23
2023-03-22T13:22:50.152Z,13.19
2023-03-22T13:25:19.286Z,13.14
2023-03-22T13:28:21.042Z,13.10
2023-03-22T13:30:58.649Z,13.08
2023-03-22T13:33:28.026Z,13.07
2023-03-22T13:35:59.500Z,13.04
2023-03-22T13:38:30.456Z,13.03
2023-03-22T13:41:04.725Z,13.02
2023-03-22T13:43:39.038Z,13.00
2023-03-22T13:46:22.210Z,13.00
2023-03-22T13:48:53.221Z,13.03
2023-03-22T13:51:29.790Z,13.05
2023-03-22T13:54:18.120Z,13.07
2023-03-22T13:57:01.509Z,13.08
2023-03-22T14:00:09.571Z,13.10
2023-03-22T14:02:42.242Z,13.11
2023-03-22T14:05:18.902Z,13.13
2023-03-22T14:07:52.303Z,13.13
2023-03-22T14:10:22.704Z,13.12
2023-03-22T14:12:55.777Z,13.11
2023-03-22T14:15:28.860Z,13.08
2023-03-22T14:17:57.062Z,13.08
2023-03-22T14:20:27.129Z,13.07
